createdAt,value
2019-02-04T00:00:44.218Z,933.78
2019-02-04T00:01:44.224Z,933.80
2019-02-04T00:02:44.202Z,933.78
2019-02-04T00:03:44.202Z,933.78
2019-02-04T00:04:44.219Z,933.77
2019-02-04T00:05:44.199Z,933.79
2019-02-04T00:06:44.184Z,933.79
2019-02-04T00:07:44.172Z,933.85
2019-02-04T00:08:44.165Z,933.84
2019-02-04T00:09:44.158Z,933.88
2019-02-04T00:10:44.175Z,933.88
2019-02-04T00:11:44.167Z,933.90
2019-02-04T00:12:44.160Z,933.91
2019-02-04T00:13:44.150Z,933.91
2019-02-04T00:14:44.141Z,933.94
2019-02-04T00:15:44.136Z,933.97
2019-02-04T00:16:44.136Z,933.96
2019-02-04T00:17:44.114Z,933.95
2019-02-04T00:18:44.130Z,934.00
2019-02-04T00:19:44.115Z,934.01
2019-02-04T00:20:44.117Z,934.05
2019-02-04T00:21:44.083Z,934.03
2019-02-04T00:22:44.071Z,934.05
2019-02-04T00:23:44.069Z,934.09
2019-02-04T00:24:44.118Z,934.08
2019-02-04T00:25:44.076Z,934.07
2019-02-04T00:26:51.331Z,934.07
2019-02-04T00:27:44.067Z,934.08
2019-02-04T00:28:44.043Z,934.15
2019-02-04T00:29:44.052Z,934.14
2019-02-04T00:30:44.046Z,934.14
2019-02-04T00:31:44.124Z,934.16
2019-02-04T00:32:44.031Z,934.05
2019-02-04T00:33:44.014Z,934.02
2019-02-04T00:34:43.999Z,934.01
2019-02-04T00:35:44.000Z,934.05
2019-02-04T00:36:43.982Z,934.08
2019-02-04T00:37:44.005Z,934.08
2019-02-04T00:38:43.979Z,934.15
2019-02-04T00:39:43.964Z,934.09
2019-02-04T00:40:43.955Z,934.11
2019-02-04T00:41:43.950Z,934.06
2019-02-04T00:42:43.951Z,934.11
2019-02-04T00:43:43.962Z,934.09
2019-02-04T00:44:43.941Z,934.10
2019-02-04T00:45:43.954Z,934.12
2019-02-04T00:46:52.051Z,934.08
2019-02-04T00:47:43.920Z,934.08
2019-02-04T00:48:43.918Z,934.11
2019-02-04T00:49:43.906Z,934.05
2019-02-04T00:50:43.893Z,934.07
2019-02-04T00:51:43.902Z,934.09
2019-02-04T00:52:43.890Z,934.08
2019-02-04T00:53:43.882Z,934.13
2019-02-04T00:54:43.879Z,934.17
2019-02-04T00:55:43.878Z,934.16
2019-02-04T00:56:43.885Z,934.16
2019-02-04T00:57:43.903Z,934.17
2019-02-04T00:58:43.911Z,934.17
2019-02-04T00:59:44.058Z,934.20
2019-02-04T01:00:43.854Z,934.14
2019-02-04T01:01:43.830Z,934.16
2019-02-04T01:02:43.888Z,934.16
2019-02-04T01:03:43.830Z,934.18
2019-02-04T01:04:43.830Z,934.20
2019-02-04T01:05:43.814Z,934.21
2019-02-04T01:06:43.850Z,934.20
2019-02-04T01:07:43.795Z,934.20
2019-02-04T01:08:43.793Z,934.23
2019-02-04T01:09:43.805Z,934.26
2019-02-04T01:10:43.826Z,934.26
2019-02-04T01:11:43.786Z,934.35
2019-02-04T01:12:43.775Z,934.38
2019-02-04T01:13:43.766Z,934.37
2019-02-04T01:14:43.757Z,934.39
2019-02-04T01:15:43.793Z,934.39
2019-02-04T01:16:43.756Z,934.42
2019-02-04T01:17:43.787Z,934.42
2019-02-04T01:18:43.782Z,934.44
2019-02-04T01:19:43.747Z,934.44
2019-02-04T01:20:43.772Z,934.44
2019-02-04T01:21:43.704Z,934.46
2019-02-04T01:22:43.758Z,934.52
2019-02-04T01:23:43.701Z,934.51
2019-02-04T01:24:43.701Z,934.52
2019-02-04T01:25:43.697Z,934.48
2019-02-04T01:26:43.701Z,934.50
2019-02-04T01:27:43.684Z,934.46
2019-02-04T01:28:43.677Z,934.47
2019-02-04T01:29:43.660Z,934.44
2019-02-04T01:30:43.655Z,934.47
2019-02-04T01:31:43.648Z,934.43
2019-02-04T01:32:43.652Z,934.41
2019-02-04T01:33:43.638Z,934.38
2019-02-04T01:34:43.622Z,934.33
2019-02-04T01:35:43.627Z,934.28
2019-02-04T01:36:43.629Z,934.26
2019-02-04T01:37:43.629Z,934.25
2019-02-04T01:38:43.609Z,934.22
2019-02-04T01:39:43.602Z,934.26
2019-02-04T01:40:43.595Z,934.22
2019-02-04T01:41:43.590Z,934.23
2019-02-04T01:42:43.597Z,934.23
2019-02-04T01:43:43.592Z,934.30
2019-02-04T01:44:43.615Z,934.30
2019-02-04T01:45:43.587Z,934.29
2019-02-04T01:46:43.605Z,934.29
2019-02-04T01:47:43.549Z,934.31
2019-02-04T01:48:43.559Z,934.32
2019-02-04T01:49:43.563Z,934.33
2019-02-04T01:50:43.536Z,934.37
2019-02-04T01:51:43.544Z,934.36
2019-02-04T01:52:43.521Z,934.37
2019-02-04T01:53:43.526Z,934.32
2019-02-04T01:54:43.527Z,934.37
2019-02-04T01:55:43.516Z,934.34
2019-02-04T01:56:43.510Z,934.36
2019-02-04T01:57:43.542Z,934.34
2019-02-04T01:58:43.496Z,934.34
2019-02-04T01:59:43.487Z,934.34
2019-02-04T02:00:43.485Z,934.34
2019-02-04T02:01:43.474Z,934.36
2019-02-04T02:02:43.453Z,934.33
2019-02-04T02:03:43.465Z,934.28
2019-02-04T02:04:43.481Z,934.29
2019-02-04T02:05:43.447Z,934.24
2019-02-04T02:06:43.466Z,934.21
2019-02-04T02:07:43.488Z,934.17
2019-02-04T02:08:43.437Z,934.15
2019-02-04T02:09:43.495Z,934.08
2019-02-04T02:10:43.437Z,934.06
2019-02-04T02:11:43.428Z,934.01
2019-02-04T02:12:43.412Z,934.01
2019-02-04T02:13:43.408Z,933.92
2019-02-04T02:14:43.402Z,933.96
2019-02-04T02:15:43.401Z,933.92
2019-02-04T02:16:43.377Z,933.95
2019-02-04T02:17:43.364Z,933.94
2019-02-04T02:18:43.381Z,933.97
2019-02-04T02:19:43.367Z,933.99
2019-02-04T02:20:43.370Z,934.01
2019-02-04T02:21:43.360Z,933.96
2019-02-04T02:22:43.356Z,933.92
2019-02-04T02:23:43.347Z,933.86
2019-02-04T02:24:43.338Z,933.79
2019-02-04T02:25:43.338Z,933.73
2019-02-04T02:26:43.325Z,933.70
2019-02-04T02:27:43.318Z,933.63
2019-02-04T02:28:43.317Z,933.57
2019-02-04T02:29:43.304Z,933.54
2019-02-04T02:30:43.303Z,933.51
2019-02-04T02:31:43.290Z,933.49
2019-02-04T02:32:43.286Z,933.46
2019-02-04T02:33:43.292Z,933.47
2019-02-04T02:34:43.302Z,933.43
2019-02-04T02:35:43.298Z,933.38
2019-02-04T02:36:43.281Z,933.33
2019-02-04T02:37:43.280Z,933.28
2019-02-04T02:38:43.243Z,933.25
2019-02-04T02:39:43.263Z,933.20
2019-02-04T02:40:43.258Z,933.19
2019-02-04T02:41:43.257Z,933.17
2019-02-04T02:42:43.253Z,933.14
2019-02-04T02:43:43.212Z,933.12
2019-02-04T02:44:43.224Z,933.11
2019-02-04T02:45:43.228Z,933.15
2019-02-04T02:46:43.222Z,933.15
2019-02-04T02:47:43.210Z,933.18
2019-02-04T02:48:43.214Z,933.21
2019-02-04T02:49:43.197Z,933.22
2019-02-04T02:50:43.190Z,933.29
2019-02-04T02:51:43.176Z,933.34
2019-02-04T02:52:43.167Z,933.30
2019-02-04T02:53:43.230Z,933.31
2019-02-04T02:54:43.165Z,933.36
2019-02-04T02:55:43.159Z,933.33
2019-02-04T02:56:43.166Z,933.38
2019-02-04T02:57:43.156Z,933.38
2019-02-04T02:58:43.138Z,933.37
2019-02-04T02:59:43.137Z,933.40
2019-02-04T03:00:43.129Z,933.46
2019-02-04T03:01:43.131Z,933.42
2019-02-04T03:02:43.120Z,933.48
2019-02-04T03:03:43.118Z,933.48
2019-02-04T03:04:43.114Z,933.48
2019-02-04T03:05:43.106Z,933.53
2019-02-04T03:06:43.116Z,933.53
2019-02-04T03:07:43.087Z,933.48
2019-02-04T03:08:43.079Z,933.50
2019-02-04T03:09:43.061Z,933.49
2019-02-04T03:10:43.056Z,933.50
2019-02-04T03:11:43.082Z,933.48
2019-02-04T03:12:43.062Z,933.51
2019-02-04T03:13:43.093Z,933.45
2019-02-04T03:14:43.057Z,933.47
2019-02-04T03:15:43.046Z,933.49
2019-02-04T03:16:43.070Z,933.47
2019-02-04T03:17:51.469Z,933.50
2019-02-04T03:18:43.013Z,933.49
2019-02-04T03:19:43.057Z,933.53
2019-02-04T03:20:42.997Z,933.57
2019-02-04T03:21:43.044Z,933.53
2019-02-04T03:22:43.015Z,933.53
2019-02-04T03:23:43.010Z,933.49
2019-02-04T03:24:42.981Z,933.44
2019-02-04T03:25:42.989Z,933.43
2019-02-04T03:26:43.026Z,933.43
2019-02-04T03:27:42.961Z,933.41
2019-02-04T03:28:43.010Z,933.40
2019-02-04T03:29:43.003Z,933.44
2019-02-04T03:30:43.095Z,933.42
2019-02-04T03:31:46.104Z,933.44
2019-02-04T03:32:42.943Z,933.42
2019-02-04T03:33:42.949Z,933.45
2019-02-04T03:34:42.912Z,933.44
2019-02-04T03:35:42.934Z,933.50
2019-02-04T03:36:42.912Z,933.53
2019-02-04T03:37:42.917Z,933.53
2019-02-04T03:38:42.897Z,933.56
2019-02-04T03:39:42.902Z,933.55
2019-02-04T03:40:42.896Z,933.56
2019-02-04T03:41:42.883Z,933.51
2019-02-04T03:42:42.922Z,933.47
2019-02-04T03:43:42.878Z,933.43
2019-02-04T03:44:42.870Z,933.43
2019-02-04T03:45:42.867Z,933.42
2019-02-04T03:46:42.837Z,933.40
2019-02-04T03:47:42.866Z,933.38
2019-02-04T03:48:42.840Z,933.42
2019-02-04T03:49:42.878Z,933.40
2019-02-04T03:50:42.841Z,933.44
2019-02-04T03:51:42.827Z,933.44
2019-02-04T03:52:42.821Z,933.46
2019-02-04T03:53:42.817Z,933.45
2019-02-04T03:54:42.854Z,933.50
2019-02-04T03:55:42.787Z,933.52
2019-02-04T03:56:42.810Z,933.56
2019-02-04T03:57:42.803Z,933.53
2019-02-04T03:58:42.769Z,933.58
2019-02-04T03:59:42.767Z,933.61
2019-02-04T04:00:42.790Z,933.71
2019-02-04T04:01:42.750Z,933.81
2019-02-04T04:02:42.770Z,934.05
2019-02-04T04:03:42.761Z,933.87
2019-02-04T04:04:42.729Z,933.85
2019-02-04T04:05:42.747Z,933.73
2019-02-04T04:06:42.728Z,933.68
2019-02-04T04:07:42.723Z,933.69
2019-02-04T04:08:42.718Z,933.68
2019-02-04T04:09:42.708Z,933.65
2019-02-04T04:10:42.731Z,933.55
2019-02-04T04:11:42.716Z,933.48
2019-02-04T04:12:42.733Z,933.51
2019-02-04T04:13:42.694Z,933.38
2019-02-04T04:14:42.683Z,933.34
2019-02-04T04:15:42.684Z,933.40
2019-02-04T04:16:42.706Z,933.39
2019-02-04T04:17:42.647Z,933.39
2019-02-04T04:18:42.654Z,933.39
2019-02-04T04:19:42.646Z,933.36
2019-02-04T04:20:42.638Z,933.32
2019-02-04T04:21:42.642Z,933.23
2019-02-04T04:22:42.615Z,933.12
2019-02-04T04:23:42.613Z,933.11
2019-02-04T04:24:42.612Z,933.10
2019-02-04T04:25:42.595Z,933.06
2019-02-04T04:26:42.597Z,933.00
2019-02-04T04:27:42.599Z,932.93
2019-02-04T04:28:42.568Z,932.87
2019-02-04T04:29:42.581Z,932.90
2019-02-04T04:30:42.579Z,932.89
2019-02-04T04:31:42.556Z,932.94
2019-02-04T04:32:42.553Z,933.01
2019-02-04T04:33:42.529Z,933.04
2019-02-04T04:34:42.532Z,933.10
2019-02-04T04:35:42.522Z,933.07
2019-02-04T04:36:42.515Z,933.09
2019-02-04T04:37:42.527Z,933.12
2019-02-04T04:38:42.514Z,933.19
2019-02-04T04:39:42.708Z,933.29
2019-02-04T04:40:42.494Z,933.24
2019-02-04T04:41:42.478Z,933.32
2019-02-04T04:42:42.513Z,933.27
2019-02-04T04:43:42.458Z,933.23
2019-02-04T04:44:42.479Z,933.17
2019-02-04T04:45:42.463Z,932.91
2019-02-04T04:46:42.447Z,932.75
2019-02-04T04:47:42.432Z,932.77
2019-02-04T04:48:42.446Z,932.81
2019-02-04T04:49:42.435Z,932.83
2019-02-04T04:50:42.422Z,932.75
2019-02-04T04:51:42.411Z,932.72
2019-02-04T04:52:42.410Z,932.72
2019-02-04T04:53:42.406Z,932.66
2019-02-04T04:54:42.393Z,932.72
2019-02-04T04:55:42.369Z,932.69
2019-02-04T04:56:42.384Z,932.70
2019-02-04T04:57:42.360Z,932.70
2019-02-04T04:58:42.338Z,932.65
2019-02-04T04:59:42.339Z,932.65
2019-02-04T05:00:42.338Z,932.69
2019-02-04T05:01:42.323Z,932.54
2019-02-04T05:02:42.315Z,932.64
2019-02-04T05:03:42.304Z,932.60
2019-02-04T05:04:42.289Z,932.62
2019-02-04T05:05:42.308Z,932.67
2019-02-04T05:06:42.335Z,932.77
2019-02-04T05:07:42.290Z,932.78
2019-02-04T05:08:42.263Z,932.90
2019-02-04T05:09:42.299Z,932.75
2019-02-04T05:10:42.256Z,932.80
2019-02-04T05:11:42.297Z,932.87
2019-02-04T05:12:42.244Z,932.89
2019-02-04T05:13:42.238Z,932.90
2019-02-04T05:14:42.237Z,932.86
2019-02-04T05:15:42.214Z,932.97
2019-02-04T05:16:42.203Z,933.08
2019-02-04T05:17:42.196Z,933.08
2019-02-04T05:18:42.196Z,933.06
2019-02-04T05:19:42.180Z,932.96
2019-02-04T05:20:42.171Z,932.96
2019-02-04T05:21:42.172Z,932.96
2019-02-04T05:22:42.204Z,932.97
2019-02-04T05:23:42.149Z,932.93
2019-02-04T05:24:42.144Z,932.97
2019-02-04T05:25:42.121Z,932.96
2019-02-04T05:26:42.137Z,932.91
2019-02-04T05:27:42.112Z,932.91
2019-02-04T05:28:42.103Z,932.84
2019-02-04T05:29:42.132Z,932.84
2019-02-04T05:30:42.135Z,932.78
2019-02-04T05:31:42.090Z,932.90
2019-02-04T05:32:42.119Z,932.92
2019-02-04T05:33:42.117Z,932.97
2019-02-04T05:34:42.106Z,933.04
2019-02-04T05:35:42.039Z,933.03
2019-02-04T05:36:42.030Z,933.08
2019-02-04T05:37:42.026Z,933.03
2019-02-04T05:38:42.028Z,932.98
2019-02-04T05:39:42.059Z,932.96
2019-02-04T05:40:42.015Z,932.94
2019-02-04T05:41:43.042Z,932.92
2019-02-04T05:42:41.988Z,932.88
2019-02-04T05:43:42.018Z,932.92
2019-02-04T05:44:42.009Z,932.86
2019-02-04T05:45:41.963Z,932.90
2019-02-04T05:46:41.953Z,932.91
2019-02-04T05:47:41.971Z,932.95
2019-02-04T05:48:49.063Z,932.92
2019-02-04T05:49:41.937Z,932.96
2019-02-04T05:50:41.935Z,932.94
2019-02-04T05:51:41.918Z,933.00
2019-02-04T05:52:41.945Z,932.98
2019-02-04T05:53:41.937Z,932.96
2019-02-04T05:54:41.889Z,933.00
2019-02-04T05:55:41.879Z,932.90
2019-02-04T05:56:41.871Z,932.88
2019-02-04T05:57:41.872Z,932.85
2019-02-04T05:58:41.869Z,932.85
2019-02-04T05:59:41.893Z,932.90
2019-02-04T06:00:41.849Z,932.80
2019-02-04T06:01:41.817Z,932.79
2019-02-04T06:02:41.809Z,932.77
2019-02-04T06:03:41.819Z,932.80
2019-02-04T06:04:41.798Z,932.84
2019-02-04T06:05:41.790Z,932.88
2019-02-04T06:06:41.777Z,932.85
2019-02-04T06:07:41.782Z,932.82
2019-02-04T06:08:41.786Z,932.88
2019-02-04T06:09:41.764Z,932.87
2019-02-04T06:10:41.763Z,932.90
2019-02-04T06:11:41.759Z,932.93
2019-02-04T06:12:41.750Z,932.90
2019-02-04T06:13:41.737Z,932.87
2019-02-04T06:14:41.732Z,932.91
2019-02-04T06:15:41.711Z,932.93
2019-02-04T06:18:27.792Z,932.99
2019-02-04T06:19:27.798Z,933.04
2019-02-04T06:20:27.805Z,933.06
2019-02-04T06:21:27.784Z,933.03
2019-02-04T06:22:27.770Z,933.02
2019-02-04T06:23:27.768Z,932.95
2019-02-04T06:24:27.770Z,932.94
2019-02-04T06:25:27.772Z,932.96
2019-02-04T06:26:27.751Z,932.95
2019-02-04T06:27:27.736Z,932.94
2019-02-04T06:28:27.723Z,932.94
2019-02-04T06:29:27.714Z,932.88
2019-02-04T06:30:27.714Z,932.89
2019-02-04T06:31:27.725Z,932.88
2019-02-04T06:32:27.701Z,932.85
2019-02-04T06:33:27.677Z,932.85
2019-02-04T06:34:27.690Z,932.87
2019-02-04T06:35:27.683Z,932.89
2019-02-04T06:36:27.669Z,932.88
2019-02-04T06:37:27.659Z,932.91
2019-02-04T06:38:27.666Z,932.88
2019-02-04T06:39:27.656Z,932.83
2019-02-04T06:40:27.629Z,932.83
2019-02-04T06:41:27.617Z,932.80
2019-02-04T06:42:27.693Z,932.83
2019-02-04T06:43:27.604Z,932.79
2019-02-04T06:44:27.613Z,932.75
2019-02-04T06:45:27.603Z,932.73
2019-02-04T06:46:27.595Z,932.74
2019-02-04T06:47:27.589Z,932.76
2019-02-04T06:48:27.580Z,932.71
2019-02-04T06:49:27.558Z,932.72
2019-02-04T06:50:27.572Z,932.69
2019-02-04T06:51:27.563Z,932.70
2019-02-04T06:52:27.556Z,932.70
2019-02-04T06:53:27.532Z,932.66
2019-02-04T06:54:27.514Z,932.65
2019-02-04T06:55:27.520Z,932.60
2019-02-04T06:56:27.522Z,932.64
2019-02-04T06:57:27.512Z,932.65
2019-02-04T06:58:27.491Z,932.70
2019-02-04T06:59:27.476Z,932.67
2019-02-04T07:00:27.484Z,932.68
2019-02-04T07:01:27.467Z,932.69
2019-02-04T07:02:27.472Z,932.67
2019-02-04T07:03:27.451Z,932.68
2019-02-04T07:04:27.438Z,932.63
2019-02-04T07:05:27.447Z,932.67
2019-02-04T07:06:27.441Z,932.63
2019-02-04T07:07:27.425Z,932.66
2019-02-04T07:08:27.409Z,932.69
2019-02-04T07:09:27.425Z,932.67
2019-02-04T07:10:27.411Z,932.65
2019-02-04T07:11:27.399Z,932.67
2019-02-04T07:12:27.405Z,932.66
2019-02-04T07:13:27.399Z,932.63
2019-02-04T07:14:27.381Z,932.66
2019-02-04T07:15:27.375Z,932.67
2019-02-04T07:16:27.340Z,932.64
2019-02-04T07:17:27.363Z,932.65
2019-02-04T07:18:27.328Z,932.62
2019-02-04T07:19:27.332Z,932.62
2019-02-04T07:20:27.319Z,932.67
2019-02-04T07:21:27.327Z,932.66
2019-02-04T07:22:27.334Z,932.66
2019-02-04T07:23:27.310Z,932.64
2019-02-04T07:24:27.299Z,932.58
2019-02-04T07:25:27.291Z,932.56
2019-02-04T07:26:27.272Z,932.60
2019-02-04T07:27:27.264Z,932.61
2019-02-04T07:28:27.254Z,932.57
2019-02-04T07:29:27.268Z,932.56
2019-02-04T07:30:27.246Z,932.54
2019-02-04T07:31:27.244Z,932.51
2019-02-04T07:32:27.268Z,932.51
2019-02-04T07:33:27.279Z,932.46
2019-02-04T07:34:27.363Z,932.38
2019-02-04T07:35:27.254Z,932.42
2019-02-04T07:36:27.184Z,932.38
2019-02-04T07:37:27.205Z,932.36
2019-02-04T07:38:27.230Z,932.35
2019-02-04T07:39:27.227Z,932.32
2019-02-04T07:40:27.169Z,932.32
2019-02-04T07:41:27.169Z,932.32
2019-02-04T07:42:27.170Z,932.29
2019-02-04T07:43:27.160Z,932.30
2019-02-04T07:44:27.221Z,932.25
2019-02-04T07:45:27.131Z,932.25
2019-02-04T07:46:27.167Z,932.17
2019-02-04T07:47:27.120Z,932.19
2019-02-04T07:48:27.094Z,932.13
2019-02-04T07:49:35.040Z,932.10
2019-02-04T07:50:27.102Z,932.06
2019-02-04T07:51:27.095Z,932.03
2019-02-04T07:52:27.120Z,932.04
2019-02-04T07:53:27.080Z,932.08
2019-02-04T07:54:27.062Z,932.02
2019-02-04T07:55:27.052Z,932.03
2019-02-04T07:56:27.082Z,932.08
2019-02-04T07:57:27.045Z,932.12
2019-02-04T07:58:27.045Z,932.13
2019-02-04T07:59:27.037Z,932.15
2019-02-04T08:00:27.023Z,932.16
2019-02-04T08:01:27.034Z,932.25
2019-02-04T08:02:27.013Z,932.24
2019-02-04T08:03:27.000Z,932.28
2019-02-04T08:04:26.992Z,932.27
2019-02-04T08:05:27.005Z,932.32
2019-02-04T08:06:26.959Z,932.32
2019-02-04T08:07:26.950Z,932.36
2019-02-04T08:08:26.968Z,932.37
2019-02-04T08:09:26.961Z,932.38
2019-02-04T08:10:26.960Z,932.44
2019-02-04T08:11:26.943Z,932.44
2019-02-04T08:12:26.907Z,932.44
2019-02-04T08:13:26.915Z,932.41
2019-02-04T08:14:26.924Z,932.43
2019-02-04T08:15:26.899Z,932.41
2019-02-04T08:16:26.924Z,932.49
2019-02-04T08:17:26.905Z,932.46
2019-02-04T08:18:26.872Z,932.48
2019-02-04T08:19:26.874Z,932.45
2019-02-04T08:20:26.857Z,932.50
2019-02-04T08:21:26.847Z,932.51
2019-02-04T08:22:26.859Z,932.45
2019-02-04T08:23:26.825Z,932.46
2019-02-04T08:24:26.880Z,932.46
2019-02-04T08:25:26.838Z,932.45
2019-02-04T08:26:26.802Z,932.49
2019-02-04T08:27:26.813Z,932.45
2019-02-04T08:28:26.795Z,932.51
2019-02-04T08:29:26.792Z,932.54
2019-02-04T08:30:26.793Z,932.53
2019-02-04T08:31:26.777Z,932.53
2019-02-04T08:32:26.789Z,932.51
2019-02-04T08:33:26.767Z,932.53
2019-02-04T08:34:26.752Z,932.55
2019-02-04T08:35:26.755Z,932.55
2019-02-04T08:36:26.735Z,932.52
2019-02-04T08:37:26.747Z,932.53
2019-02-04T08:38:26.714Z,932.55
2019-02-04T08:39:26.706Z,932.55
2019-02-04T08:40:26.727Z,932.58
2019-02-04T08:41:26.711Z,932.56
2019-02-04T08:42:26.731Z,932.57
2019-02-04T08:43:26.683Z,932.60
2019-02-04T08:44:26.669Z,932.56
2019-02-04T08:45:26.676Z,932.56
2019-02-04T08:46:26.666Z,932.56
2019-02-04T08:47:26.633Z,932.57
2019-02-04T08:48:26.652Z,932.69
2019-02-04T08:49:26.642Z,932.64
2019-02-04T08:50:26.616Z,932.63
2019-02-04T08:51:26.627Z,932.66
2019-02-04T08:52:26.621Z,932.65
2019-02-04T08:53:26.594Z,932.66
2019-02-04T08:54:26.604Z,932.68
2019-02-04T08:55:26.597Z,932.63
2019-02-04T08:56:26.576Z,932.63
2019-02-04T08:57:26.593Z,932.65
2019-02-04T08:58:26.579Z,932.67
2019-02-04T08:59:26.565Z,932.67
2019-02-04T09:00:26.590Z,932.69
2019-02-04T09:01:26.532Z,932.73
2019-02-04T09:02:26.580Z,932.77
2019-02-04T09:03:26.536Z,932.79
2019-02-04T09:04:26.529Z,932.75
2019-02-04T09:05:26.518Z,932.76
2019-02-04T09:06:26.508Z,932.80
2019-02-04T09:07:26.511Z,932.87
2019-02-04T09:08:26.477Z,932.86
2019-02-04T09:09:26.472Z,932.89
2019-02-04T09:10:26.477Z,932.93
2019-02-04T09:11:26.461Z,932.93
2019-02-04T09:12:26.446Z,932.92
2019-02-04T09:13:26.457Z,932.92
2019-02-04T09:14:26.442Z,932.98
2019-02-04T09:15:26.429Z,932.96
2019-02-04T09:16:26.430Z,933.01
2019-02-04T09:17:26.462Z,933.05
2019-02-04T09:18:26.403Z,933.09
2019-02-04T09:19:26.398Z,933.10
2019-02-04T09:20:26.410Z,933.15
2019-02-04T09:21:26.367Z,933.14
2019-02-04T09:22:26.371Z,933.23
2019-02-04T09:23:26.357Z,933.27
2019-02-04T09:24:26.339Z,933.32
2019-02-04T09:25:26.390Z,933.31
2019-02-04T09:26:26.322Z,933.37
2019-02-04T09:27:26.327Z,933.36
2019-02-04T09:28:26.312Z,933.42
2019-02-04T09:29:26.317Z,933.40
2019-02-04T09:30:26.445Z,933.41
2019-02-04T09:31:26.311Z,933.37
2019-02-04T09:32:26.287Z,933.39
2019-02-04T09:33:26.272Z,933.43
2019-02-04T09:34:26.290Z,933.41
2019-02-04T09:35:26.283Z,933.42
2019-02-04T09:36:26.261Z,933.45
2019-02-04T09:37:26.265Z,933.43
2019-02-04T09:38:26.251Z,933.54
2019-02-04T09:39:26.243Z,933.49
2019-02-04T09:40:26.243Z,933.54
2019-02-04T09:41:26.238Z,933.56
2019-02-04T09:42:26.210Z,933.61
2019-02-04T09:43:26.217Z,933.57
2019-02-04T09:44:26.190Z,933.61
2019-02-04T09:45:27.739Z,933.65
2019-02-04T09:46:26.192Z,933.71
2019-02-04T09:47:26.160Z,933.66
2019-02-04T09:48:26.175Z,933.69
2019-02-04T09:49:26.149Z,933.69
2019-02-04T09:50:26.145Z,933.77
2019-02-04T09:51:26.236Z,933.81
2019-02-04T09:52:26.125Z,933.81
2019-02-04T09:53:26.144Z,933.83
2019-02-04T09:54:26.116Z,933.82
2019-02-04T09:55:26.143Z,933.88
2019-02-04T09:56:26.084Z,933.83
2019-02-04T09:57:26.100Z,933.85
2019-02-04T09:58:26.075Z,933.87
2019-02-04T09:59:26.099Z,933.87
2019-02-04T10:00:26.077Z,933.86
2019-02-04T10:01:26.045Z,933.83
2019-02-04T10:02:26.070Z,933.87
2019-02-04T10:03:26.046Z,933.90
2019-02-04T10:04:26.029Z,933.92
2019-02-04T10:05:26.034Z,933.97
2019-02-04T10:06:26.024Z,933.97
2019-02-04T10:07:26.021Z,934.00
2019-02-04T10:08:26.053Z,934.00
2019-02-04T10:09:25.983Z,934.04
2019-02-04T10:10:25.993Z,934.10
2019-02-04T10:11:25.981Z,934.07
2019-02-04T10:12:25.988Z,934.11
2019-02-04T10:13:25.967Z,934.11
2019-02-04T10:14:25.960Z,934.14
2019-02-04T10:15:25.945Z,934.21
2019-02-04T10:16:25.950Z,934.18
2019-02-04T10:17:25.948Z,934.19
2019-02-04T10:18:25.935Z,934.19
2019-02-04T10:19:25.914Z,934.18
2019-02-04T10:20:33.503Z,934.26
2019-02-04T10:21:25.913Z,934.22
2019-02-04T10:22:25.902Z,934.27
2019-02-04T10:23:25.935Z,934.26
2019-02-04T10:24:25.887Z,934.26
2019-02-04T10:25:25.938Z,934.28
2019-02-04T10:26:25.879Z,934.32
2019-02-04T10:27:25.868Z,934.36
2019-02-04T10:28:25.867Z,934.33
2019-02-04T10:29:25.902Z,934.33
2019-02-04T10:30:25.885Z,934.35
2019-02-04T10:31:29.274Z,934.37
2019-02-04T10:32:25.829Z,934.37
2019-02-04T10:33:25.839Z,934.38
2019-02-04T10:34:25.808Z,934.39
2019-02-04T10:35:25.811Z,934.42
2019-02-04T10:36:25.832Z,934.41
2019-02-04T10:37:27.750Z,934.46
2019-02-04T10:38:25.793Z,934.49
2019-02-04T10:39:25.817Z,934.53
2019-02-04T10:40:25.769Z,934.50
2019-02-04T10:41:25.740Z,934.49
2019-02-04T10:42:25.804Z,934.48
2019-02-04T10:43:27.521Z,934.52
2019-02-04T10:44:25.725Z,934.51
2019-02-04T10:45:25.764Z,934.55
2019-02-04T10:46:25.699Z,934.52
2019-02-04T10:47:25.706Z,934.54
2019-02-04T10:48:25.708Z,934.56
2019-02-04T10:49:26.037Z,934.57
2019-02-04T10:50:25.732Z,934.56
2019-02-04T10:51:25.682Z,934.58
2019-02-04T10:52:25.703Z,934.59
2019-02-04T10:53:25.845Z,934.58
2019-02-04T10:54:25.675Z,934.63
2019-02-04T10:55:25.726Z,934.64
2019-02-04T10:56:25.665Z,934.65
2019-02-04T10:57:25.629Z,934.67
2019-02-04T10:58:25.668Z,934.67
2019-02-04T10:59:25.660Z,934.69
2019-02-04T11:00:25.634Z,934.69
2019-02-04T11:01:25.585Z,934.68
2019-02-04T11:02:25.588Z,934.68
2019-02-04T11:03:25.604Z,934.66
2019-02-04T11:04:25.560Z,934.71
2019-02-04T11:05:25.547Z,934.71
2019-02-04T11:06:25.558Z,934.76
2019-02-04T11:07:25.540Z,934.74
2019-02-04T11:08:25.557Z,934.75
2019-02-04T11:09:25.623Z,934.75
2019-02-04T11:10:27.273Z,934.75
2019-02-04T11:11:25.518Z,934.76
2019-02-04T11:12:25.486Z,934.76
2019-02-04T11:13:25.481Z,934.77
2019-02-04T11:14:25.519Z,934.81
2019-02-04T11:15:25.792Z,934.83
2019-02-04T11:16:25.495Z,934.80
2019-02-04T11:17:25.450Z,934.83
2019-02-04T11:18:25.530Z,934.82
2019-02-04T11:19:25.449Z,934.78
2019-02-04T11:20:25.442Z,934.85
2019-02-04T11:21:25.445Z,934.85
2019-02-04T11:22:25.424Z,934.86
2019-02-04T11:23:25.451Z,934.89
2019-02-04T11:24:25.422Z,934.85
2019-02-04T11:25:25.382Z,934.92
2019-02-04T11:26:25.408Z,934.90
2019-02-04T11:27:25.365Z,934.90
2019-02-04T11:28:25.418Z,934.87
2019-02-04T11:29:25.407Z,934.92
2019-02-04T11:30:25.411Z,934.90
2019-02-04T11:31:25.408Z,934.87
2019-02-04T11:32:25.358Z,934.91
2019-02-04T11:33:25.373Z,934.94
2019-02-04T11:34:25.318Z,934.94
2019-02-04T11:35:25.304Z,934.96
2019-02-04T11:36:25.408Z,934.91
2019-02-04T11:37:25.313Z,934.93
2019-02-04T11:38:25.352Z,934.94
2019-02-04T11:39:25.350Z,934.94
2019-02-04T11:40:25.308Z,934.96
2019-02-04T11:41:25.275Z,934.96
2019-02-04T11:42:25.365Z,934.96
2019-02-04T11:43:25.305Z,934.99
2019-02-04T11:44:25.323Z,934.99
2019-02-04T11:45:25.311Z,935.01
2019-02-04T11:46:25.232Z,934.99
2019-02-04T11:47:25.287Z,934.99
2019-02-04T11:48:25.271Z,934.99
2019-02-04T11:49:25.213Z,934.98
2019-02-04T11:50:25.186Z,934.96
2019-02-04T11:51:25.198Z,934.95
2019-02-04T11:52:25.182Z,934.94
2019-02-04T11:53:33.036Z,934.97
2019-02-04T11:54:25.160Z,934.93
2019-02-04T11:55:25.151Z,934.94
2019-02-04T11:56:25.138Z,934.94
2019-02-04T11:57:25.192Z,934.94
2019-02-04T11:58:25.123Z,934.98
2019-02-04T11:59:25.128Z,934.92
2019-02-04T12:00:25.128Z,934.91
2019-02-04T12:01:25.160Z,934.92
2019-02-04T12:02:34.268Z,934.88
2019-02-04T12:03:25.103Z,934.88
2019-02-04T12:04:25.082Z,934.96
2019-02-04T12:05:25.105Z,934.99
2019-02-04T12:06:25.083Z,935.02
2019-02-04T12:07:25.119Z,935.03
2019-02-04T12:08:25.068Z,934.98
2019-02-04T12:09:25.051Z,934.97
2019-02-04T12:10:25.157Z,935.02
2019-02-04T12:11:25.031Z,934.98
2019-02-04T12:12:25.042Z,935.00
2019-02-04T12:13:25.006Z,935.03
2019-02-04T12:14:25.021Z,935.09
2019-02-04T12:15:25.002Z,935.06
2019-02-04T12:16:25.013Z,935.10
2019-02-04T12:17:25.003Z,935.09
2019-02-04T12:18:24.991Z,935.10
2019-02-04T12:19:24.983Z,935.12
2019-02-04T12:20:24.975Z,935.13
2019-02-04T12:21:24.958Z,935.17
2019-02-04T12:22:24.965Z,935.17
2019-02-04T12:23:24.995Z,935.14
2019-02-04T12:24:24.940Z,935.23
2019-02-04T12:25:24.942Z,935.21
2019-02-04T12:26:26.814Z,935.25
2019-02-04T12:27:31.859Z,935.26
2019-02-04T12:28:24.899Z,935.23
2019-02-04T12:29:24.896Z,935.22
2019-02-04T12:30:24.889Z,935.23